sensor_id;sensor_type;location;lat;lon;timestamp;pressure;altitude;pressure_sealevel;temperature;humidity
64354;BME280;50681;53.334;-6.536;2022-12-18T00:00:43;100814.78;;;2.12;100.00
64354;BME280;50681;53.334;-6.536;2022-12-18T00:03:09;100806.66;;;2.07;100.00
64354;BME280;50681;53.334;-6.536;2022-12-18T00:05:35;100813.28;;;2.16;100.00
64354;BME280;50681;53.334;-6.536;2022-12-18T00:08:01;100798.59;;;2.14;100.00
64354;BME280;50681;53.334;-6.536;2022-12-18T00:10:27;100792.81;;;2.17;100.00
64354;BME280;50681;53.334;-6.536;2022-12-18T00:12:52;100784.44;;;2.13;100.00
64354;BME280;50681;53.334;-6.536;2022-12-18T00:15:18;100792.25;;;2.27;100.00
64354;BME280;50681;53.334;-6.536;2022-12-18T00:17:44;100783.84;;;2.11;100.00
64354;BME280;50681;53.334;-6.536;2022-12-18T00:20:09;100819.34;;;2.24;100.00
64354;BME280;50681;53.334;-6.536;2022-12-18T00:22:35;100810.41;;;2.18;100.00
64354;BME280;50681;53.334;-6.536;2022-12-18T00:25:00;100799.03;;;2.11;100.00
64354;BME280;50681;53.334;-6.536;2022-12-18T00:27:26;100817.13;;;2.20;100.00
64354;BME280;50681;53.334;-6.536;2022-12-18T00:29:51;100825.50;;;2.24;100.00
64354;BME280;50681;53.334;-6.536;2022-12-18T00:32:17;100845.94;;;2.42;100.00
64354;BME280;50681;53.334;-6.536;2022-12-18T00:34:42;100829.09;;;2.30;100.00
64354;BME280;50681;53.334;-6.536;2022-12-18T00:37:08;100822.53;;;2.44;100.00
64354;BME280;50681;53.334;-6.536;2022-12-18T00:39:33;100827.78;;;2.63;100.00
64354;BME280;50681;53.334;-6.536;2022-12-18T00:41:59;100806.69;;;2.61;100.00
64354;BME280;50681;53.334;-6.536;2022-12-18T00:44:43;100830.63;;;2.92;100.00
64354;BME280;50681;53.334;-6.536;2022-12-18T00:47:08;100798.81;;;2.90;100.00
64354;BME280;50681;53.334;-6.536;2022-12-18T00:49:33;100790.47;;;2.99;100.00
64354;BME280;50681;53.334;-6.536;2022-12-18T00:51:59;100796.50;;;3.06;100.00
64354;BME280;50681;53.334;-6.536;2022-12-18T00:54:24;100793.84;;;3.18;100.00
64354;BME280;50681;53.334;-6.536;2022-12-18T00:56:50;100769.84;;;3.18;100.00
64354;BME280;50681;53.334;-6.536;2022-12-18T00:59:18;100799.00;;;3.48;100.00
64354;BME280;50681;53.334;-6.536;2022-12-18T01:01:44;100773.25;;;3.42;100.00
64354;BME280;50681;53.334;-6.536;2022-12-18T01:04:10;100794.81;;;3.52;100.00
64354;BME280;50681;53.334;-6.536;2022-12-18T01:06:35;100788.41;;;3.65;100.00
64354;BME280;50681;53.334;-6.536;2022-12-18T01:09:02;100793.59;;;3.84;100.00
64354;BME280;50681;53.334;-6.536;2022-12-18T01:11:27;100779.50;;;3.89;100.00
64354;BME280;50681;53.334;-6.536;2022-12-18T01:13:53;100755.56;;;3.94;100.00
64354;BME280;50681;53.334;-6.536;2022-12-18T01:16:19;100779.66;;;4.11;100.00
64354;BME280;50681;53.334;-6.536;2022-12-18T01:18:45;100788.09;;;4.20;100.00
64354;BME280;50681;53.334;-6.536;2022-12-18T01:21:15;100783.41;;;4.27;100.00
64354;BME280;50681;53.334;-6.536;2022-12-18T01:23:41;100750.66;;;4.03;100.00
64354;BME280;50681;53.334;-6.536;2022-12-18T01:26:08;100764.59;;;4.22;100.00
64354;BME280;50681;53.334;-6.536;2022-12-18T01:28:35;100762.84;;;4.28;100.00
64354;BME280;50681;53.334;-6.536;2022-12-18T01:31:23;100770.38;;;4.31;100.00
64354;BME280;50681;53.334;-6.536;2022-12-18T01:33:50;100774.81;;;4.25;100.00
64354;BME280;50681;53.334;-6.536;2022-12-18T01:38:44;100745.97;;;4.10;100.00
64354;BME280;50681;53.334;-6.536;2022-12-18T01:41:11;100736.91;;;4.11;100.00
64354;BME280;50681;53.334;-6.536;2022-12-18T01:43:53;100738.53;;;4.29;100.00
64354;BME280;50681;53.334;-6.536;2022-12-18T01:46:21;100712.50;;;4.07;100.00
64354;BME280;50681;53.334;-6.536;2022-12-18T01:48:51;100723.53;;;4.11;100.00
64354;BME280;50681;53.334;-6.536;2022-12-18T01:51:18;100706.50;;;4.00;100.00
64354;BME280;50681;53.334;-6.536;2022-12-18T01:53:44;100710.31;;;4.04;100.00
64354;BME280;50681;53.334;-6.536;2022-12-18T01:56:14;100674.03;;;3.91;100.00
64354;BME280;50681;53.334;-6.536;2022-12-18T02:01:12;100680.69;;;4.06;100.00
64354;BME280;50681;53.334;-6.536;2022-12-18T02:03:41;100681.25;;;4.08;100.00
64354;BME280;50681;53.334;-6.536;2022-12-18T02:06:18;100653.25;;;3.93;100.00
64354;BME280;50681;53.334;-6.536;2022-12-18T02:11:39;100678.59;;;4.08;100.00
64354;BME280;50681;53.334;-6.536;2022-12-18T02:20:12;100690.03;;;4.20;100.00
64354;BME280;50681;53.334;-6.536;2022-12-18T02:23:04;100674.13;;;4.14;100.00
64354;BME280;50681;53.334;-6.536;2022-12-18T02:28:29;100662.66;;;4.13;100.00
64354;BME280;50681;53.334;-6.536;2022-12-18T02:30:59;100674.84;;;4.26;100.00
64354;BME280;50681;53.334;-6.536;2022-12-18T02:33:27;100667.09;;;4.24;100.00
64354;BME280;50681;53.334;-6.536;2022-12-18T02:35:56;100656.41;;;4.24;100.00
64354;BME280;50681;53.334;-6.536;2022-12-18T02:38:23;100667.09;;;4.24;100.00
64354;BME280;50681;53.334;-6.536;2022-12-18T02:40:51;100662.81;;;4.23;100.00
64354;BME280;50681;53.334;-6.536;2022-12-18T02:43:19;100655.28;;;4.20;100.00
64354;BME280;50681;53.334;-6.536;2022-12-18T02:45:48;100669.44;;;4.38;100.00
64354;BME280;50681;53.334;-6.536;2022-12-18T02:48:15;100643.59;;;4.26;100.00
64354;BME280;50681;53.334;-6.536;2022-12-18T02:50:52;100625.47;;;4.29;100.00
64354;BME280;50681;53.334;-6.536;2022-12-18T02:53:28;100633.44;;;4.46;100.00
64354;BME280;50681;53.334;-6.536;2022-12-18T02:56:19;100639.81;;;4.62;100.00
64354;BME280;50681;53.334;-6.536;2022-12-18T03:01:35;100624.78;;;4.55;100.00
64354;BME280;50681;53.334;-6.536;2022-12-18T03:06:41;100611.63;;;4.54;100.00
64354;BME280;50681;53.334;-6.536;2022-12-18T03:09:17;100609.84;;;4.60;100.00
64354;BME280;50681;53.334;-6.536;2022-12-18T03:11:49;100575.44;;;4.46;100.00
64354;BME280;50681;53.334;-6.536;2022-12-18T03:14:37;100557.44;;;4.19;100.00
64354;BME280;50681;53.334;-6.536;2022-12-18T03:17:06;100559.81;;;4.38;100.00
64354;BME280;50681;53.334;-6.536;2022-12-18T03:19:34;100561.03;;;4.30;100.00
64354;BME280;50681;53.334;-6.536;2022-12-18T03:22:03;100534.50;;;4.23;100.00
64354;BME280;50681;53.334;-6.536;2022-12-18T03:24:31;100531.84;;;4.23;100.00
64354;BME280;50681;53.334;-6.536;2022-12-18T03:27:01;100525.44;;;4.24;100.00
64354;BME280;50681;53.334;-6.536;2022-12-18T03:29:37;100507.72;;;4.18;100.00
64354;BME280;50681;53.334;-6.536;2022-12-18T03:32:12;100516.53;;;4.19;100.00
64354;BME280;50681;53.334;-6.536;2022-12-18T03:34:41;100536.00;;;4.36;100.00
64354;BME280;50681;53.334;-6.536;2022-12-18T03:37:08;100533.19;;;4.26;100.00
64354;BME280;50681;53.334;-6.536;2022-12-18T03:39:34;100517.09;;;4.21;100.00
64354;BME280;50681;53.334;-6.536;2022-12-18T03:42:15;100538.38;;;4.33;100.00
64354;BME280;50681;53.334;-6.536;2022-12-18T03:44:57;100547.38;;;4.49;100.00
64354;BME280;50681;53.334;-6.536;2022-12-18T03:47:39;100507.78;;;4.23;100.00
64354;BME280;50681;53.334;-6.536;2022-12-18T03:52:41;100512.75;;;4.37;100.00
64354;BME280;50681;53.334;-6.536;2022-12-18T03:55:11;100523.09;;;4.50;100.00
64354;BME280;50681;53.334;-6.536;2022-12-18T03:57:37;100526.31;;;4.52;100.00
64354;BME280;50681;53.334;-6.536;2022-12-18T04:00:08;100497.19;;;4.56;100.00
64354;BME280;50681;53.334;-6.536;2022-12-18T04:02:34;100474.28;;;4.38;100.00
64354;BME280;50681;53.334;-6.536;2022-12-18T04:05:04;100492.91;;;4.55;100.00
64354;BME280;50681;53.334;-6.536;2022-12-18T04:07:31;100503.50;;;4.67;100.00
64354;BME280;50681;53.334;-6.536;2022-12-18T04:09:58;100513.97;;;4.74;100.00
64354;BME280;50681;53.334;-6.536;2022-12-18T04:12:26;100513.88;;;4.63;100.00
64354;BME280;50681;53.334;-6.536;2022-12-18T04:14:54;100504.53;;;4.66;100.00
64354;BME280;50681;53.334;-6.536;2022-12-18T04:17:19;100503.00;;;4.70;100.00
64354;BME280;50681;53.334;-6.536;2022-12-18T04:19:45;100471.91;;;4.64;100.00
64354;BME280;50681;53.334;-6.536;2022-12-18T04:22:10;100453.13;;;4.59;100.00
64354;BME280;50681;53.334;-6.536;2022-12-18T04:24:36;100470.34;;;4.68;100.00
64354;BME280;50681;53.334;-6.536;2022-12-18T04:27:02;100458.06;;;4.72;100.00
64354;BME280;50681;53.334;-6.536;2022-12-18T04:29:27;100454.44;;;4.83;100.00
64354;BME280;50681;53.334;-6.536;2022-12-18T04:31:53;100431.88;;;4.74;100.00
64354;BME280;50681;53.334;-6.536;2022-12-18T04:34:19;100448.69;;;4.97;100.00
64354;BME280;50681;53.334;-6.536;2022-12-18T04:36:45;100431.97;;;4.84;100.00
64354;BME280;50681;53.334;-6.536;2022-12-18T04:39:10;100443.63;;;5.00;100.00
64354;BME280;50681;53.334;-6.536;2022-12-18T04:41:36;100401.50;;;4.85;100.00
64354;BME280;50681;53.334;-6.536;2022-12-18T04:44:01;100412.84;;;4.98;100.00
64354;BME280;50681;53.334;-6.536;2022-12-18T04:46:27;100409.09;;;4.99;100.00
64354;BME280;50681;53.334;-6.536;2022-12-18T04:48:52;100430.97;;;5.23;100.00
64354;BME280;50681;53.334;-6.536;2022-12-18T04:51:18;100410.28;;;5.13;100.00
64354;BME280;50681;53.334;-6.536;2022-12-18T04:53:43;100418.44;;;5.29;100.00
64354;BME280;50681;53.334;-6.536;2022-12-18T04:56:11;100378.16;;;5.13;100.00
64354;BME280;50681;53.334;-6.536;2022-12-18T04:58:38;100404.50;;;5.32;100.00
64354;BME280;50681;53.334;-6.536;2022-12-18T05:01:05;100395.41;;;5.33;100.00
64354;BME280;50681;53.334;-6.536;2022-12-18T05:03:31;100370.13;;;5.13;100.00
64354;BME280;50681;53.334;-6.536;2022-12-18T05:05:56;100388.19;;;5.34;100.00
64354;BME280;50681;53.334;-6.536;2022-12-18T05:08:22;100370.22;;;5.24;100.00
64354;BME280;50681;53.334;-6.536;2022-12-18T05:10:48;100362.72;;;5.31;100.00
64354;BME280;50681;53.334;-6.536;2022-12-18T05:13:14;100350.16;;;5.32;100.00
64354;BME280;50681;53.334;-6.536;2022-12-18T05:15:39;100355.31;;;5.43;100.00
64354;BME280;50681;53.334;-6.536;2022-12-18T05:18:05;100313.69;;;5.20;100.00
64354;BME280;50681;53.334;-6.536;2022-12-18T05:20:31;100312.41;;;5.28;100.00
64354;BME280;50681;53.334;-6.536;2022-12-18T05:22:57;100316.16;;;5.27;100.00
64354;BME280;50681;53.334;-6.536;2022-12-18T05:25:22;100289.88;;;5.19;100.00
64354;BME280;50681;53.334;-6.536;2022-12-18T05:27:48;100310.00;;;5.32;100.00
64354;BME280;50681;53.334;-6.536;2022-12-18T05:30:14;100307.63;;;5.40;100.00
64354;BME280;50681;53.334;-6.536;2022-12-18T05:32:41;100294.25;;;5.40;100.00
64354;BME280;50681;53.334;-6.536;2022-12-18T05:35:08;100288.91;;;5.45;100.00
64354;BME280;50681;53.334;-6.536;2022-12-18T05:37:34;100285.47;;;5.55;100.00
64354;BME280;50681;53.334;-6.536;2022-12-18T05:40:00;100296.47;;;5.64;100.00
64354;BME280;50681;53.334;-6.536;2022-12-18T05:42:25;100281.72;;;5.51;100.00
64354;BME280;50681;53.334;-6.536;2022-12-18T05:44:51;100284.66;;;5.55;100.00
64354;BME280;50681;53.334;-6.536;2022-12-18T05:47:16;100271.22;;;5.44;100.00
64354;BME280;50681;53.334;-6.536;2022-12-18T05:49:42;100279.28;;;5.50;100.00
64354;BME280;50681;53.334;-6.536;2022-12-18T05:52:07;100279.59;;;5.58;100.00
64354;BME280;50681;53.334;-6.536;2022-12-18T05:54:33;100254.09;;;5.45;100.00
64354;BME280;50681;53.334;-6.536;2022-12-18T05:56:58;100262.69;;;5.53;100.00
64354;BME280;50681;53.334;-6.536;2022-12-18T05:59:24;100238.56;;;5.48;100.00
64354;BME280;50681;53.334;-6.536;2022-12-18T06:01:49;100250.09;;;5.48;100.00
64354;BME280;50681;53.334;-6.536;2022-12-18T06:04:15;100262.69;;;5.53;100.00
64354;BME280;50681;53.334;-6.536;2022-12-18T06:06:40;100250.94;;;5.59;100.00
64354;BME280;50681;53.334;-6.536;2022-12-18T06:09:08;100245.06;;;5.67;100.00
64354;BME280;50681;53.334;-6.536;2022-12-18T06:11:38;100237.00;;;5.62;100.00
64354;BME280;50681;53.334;-6.536;2022-12-18T06:14:04;100196.81;;;5.52;100.00
64354;BME280;50681;53.334;-6.536;2022-12-18T06:16:31;100203.28;;;5.66;100.00
64354;BME280;50681;53.334;-6.536;2022-12-18T06:19:00;100198.72;;;5.62;100.00
64354;BME280;50681;53.334;-6.536;2022-12-18T06:21:27;100194.69;;;5.64;100.00
64354;BME280;50681;53.334;-6.536;2022-12-18T06:23:53;100212.16;;;5.77;100.00
64354;BME280;50681;53.334;-6.536;2022-12-18T06:26:18;100193.06;;;5.58;100.00
64354;BME280;50681;53.334;-6.536;2022-12-18T06:28:44;100189.84;;;5.56;100.00
64354;BME280;50681;53.334;-6.536;2022-12-18T06:31:10;100178.06;;;5.47;100.00
64354;BME280;50681;53.334;-6.536;2022-12-18T06:33:36;100190.97;;;5.86;100.00
64354;BME280;50681;53.334;-6.536;2022-12-18T06:36:07;100181.84;;;5.66;100.00
64354;BME280;50681;53.334;-6.536;2022-12-18T06:38:35;100168.94;;;5.48;100.00
64354;BME280;50681;53.334;-6.536;2022-12-18T06:41:00;100200.88;;;5.65;100.00
64354;BME280;50681;53.334;-6.536;2022-12-18T06:43:26;100166.53;;;5.46;100.00
64354;BME280;50681;53.334;-6.536;2022-12-18T06:45:58;100143.22;;;5.41;100.00
64354;BME280;50681;53.334;-6.536;2022-12-18T06:48:25;100135.47;;;5.35;100.00
64354;BME280;50681;53.334;-6.536;2022-12-18T06:50:50;100158.78;;;5.50;100.00
64354;BME280;50681;53.334;-6.536;2022-12-18T06:53:16;100131.19;;;5.39;100.00
64354;BME280;50681;53.334;-6.536;2022-12-18T06:55:41;100111.63;;;5.33;100.00
64354;BME280;50681;53.334;-6.536;2022-12-18T06:58:07;100109.50;;;5.30;100.00
64354;BME280;50681;53.334;-6.536;2022-12-18T07:00:32;100127.47;;;5.50;100.00
64354;BME280;50681;53.334;-6.536;2022-12-18T07:02:58;100112.16;;;5.45;100.00
64354;BME280;50681;53.334;-6.536;2022-12-18T07:05:23;100063.44;;;5.18;100.00
64354;BME280;50681;53.334;-6.536;2022-12-18T07:07:48;100092.09;;;5.33;100.00
64354;BME280;50681;53.334;-6.536;2022-12-18T07:10:14;100093.44;;;5.45;100.00
64354;BME280;50681;53.334;-6.536;2022-12-18T07:12:39;100061.00;;;5.21;100.00
64354;BME280;50681;53.334;-6.536;2022-12-18T07:15:06;100054.88;;;5.21;100.00
64354;BME280;50681;53.334;-6.536;2022-12-18T07:17:32;100080.56;;;5.32;100.00
64354;BME280;50681;53.334;-6.536;2022-12-18T07:19:58;100051.13;;;5.22;100.00
64354;BME280;50681;53.334;-6.536;2022-12-18T07:22:25;100056.47;;;5.22;100.00
64354;BME280;50681;53.334;-6.536;2022-12-18T07:24:50;100069.84;;;5.32;100.00
64354;BME280;50681;53.334;-6.536;2022-12-18T07:27:16;100061.03;;;5.26;100.00
64354;BME280;50681;53.334;-6.536;2022-12-18T07:29:41;100059.94;;;5.27;100.00
64354;BME280;50681;53.334;-6.536;2022-12-18T07:32:07;100050.06;;;5.23;100.00
64354;BME280;50681;53.334;-6.536;2022-12-18T07:34:32;100085.13;;;5.42;100.00
64354;BME280;50681;53.334;-6.536;2022-12-18T07:36:58;100060.22;;;5.31;100.00
64354;BME280;50681;53.334;-6.536;2022-12-18T07:39:23;100034.53;;;5.30;100.00
64354;BME280;50681;53.334;-6.536;2022-12-18T07:41:49;100034.53;;;5.40;100.00
64354;BME280;50681;53.334;-6.536;2022-12-18T07:44:34;100021.66;;;5.32;100.00
64354;BME280;50681;53.334;-6.536;2022-12-18T07:47:00;100010.69;;;5.39;100.00
64354;BME280;50681;53.334;-6.536;2022-12-18T07:49:26;99982.06;;;5.24;100.00
64354;BME280;50681;53.334;-6.536;2022-12-18T07:51:54;99998.91;;;5.50;100.00
64354;BME280;50681;53.334;-6.536;2022-12-18T07:54:20;99994.34;;;5.45;100.00
64354;BME280;50681;53.334;-6.536;2022-12-18T07:56:45;99965.72;;;5.41;100.00
64354;BME280;50681;53.334;-6.536;2022-12-18T07:59:11;99951.81;;;5.44;100.00
64354;BME280;50681;53.334;-6.536;2022-12-18T08:01:36;99939.19;;;5.44;100.00
64354;BME280;50681;53.334;-6.536;2022-12-18T08:04:02;99936.28;;;5.41;100.00
64354;BME280;50681;53.334;-6.536;2022-12-18T08:06:27;99930.63;;;5.42;100.00
64354;BME280;50681;53.334;-6.536;2022-12-18T08:08:54;99931.97;;;5.50;100.00
64354;BME280;50681;53.334;-6.536;2022-12-18T08:11:19;99931.69;;;5.57;100.00
64354;BME280;50681;53.334;-6.536;2022-12-18T08:13:45;99898.53;;;5.32;100.00
64354;BME280;50681;53.334;-6.536;2022-12-18T08:16:10;99896.38;;;5.34;100.00
64354;BME280;50681;53.334;-6.536;2022-12-18T08:18:37;99911.34;;;5.51;100.00
64354;BME280;50681;53.334;-6.536;2022-12-18T08:23:35;99904.69;;;5.43;100.00
64354;BME280;50681;53.334;-6.536;2022-12-18T08:26:00;99903.06;;;5.42;100.00
64354;BME280;50681;53.334;-6.536;2022-12-18T08:28:26;99893.44;;;5.41;100.00
64354;BME280;50681;53.334;-6.536;2022-12-18T08:30:52;99910.25;;;5.57;100.00
64354;BME280;50681;53.334;-6.536;2022-12-18T08:33:17;99905.19;;;5.55;100.00
64354;BME280;50681;53.334;-6.536;2022-12-18T08:35:43;99868.53;;;5.40;100.00
64354;BME280;50681;53.334;-6.536;2022-12-18T08:38:08;99866.66;;;5.46;100.00
64354;BME280;50681;53.334;-6.536;2022-12-18T08:40:34;99890.44;;;5.63;100.00
64354;BME280;50681;53.334;-6.536;2022-12-18T08:42:59;99881.88;;;5.61;100.00
64354;BME280;50681;53.334;-6.536;2022-12-18T08:45:43;99860.47;;;5.45;100.00
64354;BME280;50681;53.334;-6.536;2022-12-18T08:48:09;99825.47;;;5.26;100.00
64354;BME280;50681;53.334;-6.536;2022-12-18T08:50:34;99845.25;;;5.36;100.00
64354;BME280;50681;53.334;-6.536;2022-12-18T08:53:00;99854.88;;;5.47;100.00
64354;BME280;50681;53.334;-6.536;2022-12-18T08:55:25;99856.16;;;5.60;100.00
64354;BME280;50681;53.334;-6.536;2022-12-18T08:57:51;99830.22;;;5.50;100.00
64354;BME280;50681;53.334;-6.536;2022-12-18T09:00:16;99855.59;;;5.68;100.00
64354;BME280;50681;53.334;-6.536;2022-12-18T09:02:42;99829.69;;;5.48;100.00
64354;BME280;50681;53.334;-6.536;2022-12-18T09:05:08;99838.78;;;5.57;100.00
64354;BME280;50681;53.334;-6.536;2022-12-18T09:07:33;99854.00;;;5.62;100.00
64354;BME280;50681;53.334;-6.536;2022-12-18T09:09:59;99857.44;;;5.78;100.00
64354;BME280;50681;53.334;-6.536;2022-12-18T09:12:24;99845.88;;;5.88;100.00
64354;BME280;50681;53.334;-6.536;2022-12-18T09:14:50;99836.59;;;5.70;100.00
64354;BME280;50681;53.334;-6.536;2022-12-18T09:17:16;99821.28;;;5.76;100.00
64354;BME280;50681;53.334;-6.536;2022-12-18T09:19:41;99805.53;;;5.64;100.00
64354;BME280;50681;53.334;-6.536;2022-12-18T09:22:06;99791.84;;;5.65;100.00
64354;BME280;50681;53.334;-6.536;2022-12-18T09:24:32;99781.66;;;5.67;100.00
64354;BME280;50681;53.334;-6.536;2022-12-18T09:26:57;99814.78;;;5.92;100.00
64354;BME280;50681;53.334;-6.536;2022-12-18T09:29:24;99819.03;;;5.98;100.00
64354;BME280;50681;53.334;-6.536;2022-12-18T09:31:49;99813.44;;;5.95;100.00
64354;BME280;50681;53.334;-6.536;2022-12-18T09:34:15;99788.78;;;5.93;100.00
64354;BME280;50681;53.334;-6.536;2022-12-18T09:36:41;99792.22;;;5.98;100.00
64354;BME280;50681;53.334;-6.536;2022-12-18T09:39:07;99794.34;;;6.07;100.00
64354;BME280;50681;53.334;-6.536;2022-12-18T09:41:47;99795.06;;;6.23;100.00
64354;BME280;50681;53.334;-6.536;2022-12-18T09:44:19;99782.72;;;6.27;100.00
64354;BME280;50681;53.334;-6.536;2022-12-18T09:46:54;99787.56;;;6.25;100.00
64354;BME280;50681;53.334;-6.536;2022-12-18T09:49:27;99792.63;;;6.26;100.00
64354;BME280;50681;53.334;-6.536;2022-12-18T09:51:59;99777.50;;;6.41;100.00
64354;BME280;50681;53.334;-6.536;2022-12-18T09:54:35;99759.59;;;6.36;100.00
64354;BME280;50681;53.334;-6.536;2022-12-18T09:57:02;99776.44;;;6.42;100.00
64354;BME280;50681;53.334;-6.536;2022-12-18T09:59:34;99761.13;;;6.47;100.00
64354;BME280;50681;53.334;-6.536;2022-12-18T10:02:21;99779.00;;;6.57;100.00
64354;BME280;50681;53.334;-6.536;2022-12-18T10:07:55;99764.16;;;6.95;100.00
64354;BME280;50681;53.334;-6.536;2022-12-18T10:10:43;99726.22;;;6.77;100.00
64354;BME280;50681;53.334;-6.536;2022-12-18T10:21:17;99739.84;;;7.10;100.00
64354;BME280;50681;53.334;-6.536;2022-12-18T10:26:12;99720.28;;;7.10;100.00
64354;BME280;50681;53.334;-6.536;2022-12-18T10:28:39;99695.94;;;7.01;100.00
64354;BME280;50681;53.334;-6.536;2022-12-18T10:31:20;99717.78;;;7.13;100.00
64354;BME280;50681;53.334;-6.536;2022-12-18T10:33:46;99688.84;;;7.10;100.00
64354;BME280;50681;53.334;-6.536;2022-12-18T10:36:12;99652.06;;;6.86;100.00
64354;BME280;50681;53.334;-6.536;2022-12-18T10:38:37;99658.97;;;7.17;100.00
64354;BME280;50681;53.334;-6.536;2022-12-18T10:43:42;99646.34;;;7.17;100.00
64354;BME280;50681;53.334;-6.536;2022-12-18T10:48:36;99648.34;;;7.50;100.00
64354;BME280;50681;53.334;-6.536;2022-12-18T10:51:06;99648.84;;;7.52;100.00
64354;BME280;50681;53.334;-6.536;2022-12-18T10:53:33;99625.81;;;7.46;100.00
64354;BME280;50681;53.334;-6.536;2022-12-18T10:56:00;99648.97;;;7.61;100.00
64354;BME280;50681;53.334;-6.536;2022-12-18T10:58:34;99628.22;;;7.67;100.00
64354;BME280;50681;53.334;-6.536;2022-12-18T11:01:16;99650.19;;;7.88;100.00
64354;BME280;50681;53.334;-6.536;2022-12-18T11:06:24;99630.06;;;7.85;100.00
64354;BME280;50681;53.334;-6.536;2022-12-18T11:09:00;99622.53;;;7.87;100.00
64354;BME280;50681;53.334;-6.536;2022-12-18T11:11:27;99621.03;;;7.95;100.00
64354;BME280;50681;53.334;-6.536;2022-12-18T11:14:03;99605.66;;;8.15;100.00
64354;BME280;50681;53.334;-6.536;2022-12-18T11:16:34;99597.00;;;8.18;100.00
64354;BME280;50681;53.334;-6.536;2022-12-18T11:21:51;99575.47;;;8.18;100.00
64354;BME280;50681;53.334;-6.536;2022-12-18T11:26:49;99551.97;;;8.23;100.00
64354;BME280;50681;53.334;-6.536;2022-12-18T11:29:24;99548.91;;;8.30;100.00
64354;BME280;50681;53.334;-6.536;2022-12-18T11:32:20;99550.78;;;8.30;100.00
64354;BME280;50681;53.334;-6.536;2022-12-18T11:34:52;99547.50;;;8.33;100.00
64354;BME280;50681;53.334;-6.536;2022-12-18T11:37:19;99536.75;;;8.19;100.00
64354;BME280;50681;53.334;-6.536;2022-12-18T11:40:11;99536.44;;;8.34;100.00
64354;BME280;50681;53.334;-6.536;2022-12-18T11:42:45;99525.88;;;8.38;100.00
64354;BME280;50681;53.334;-6.536;2022-12-18T11:48:27;99537.34;;;8.72;100.00
64354;BME280;50681;53.334;-6.536;2022-12-18T11:53:11;99502.63;;;8.84;100.00
64354;BME280;50681;53.334;-6.536;2022-12-18T12:17:17;99448.97;;;9.10;100.00
64354;BME280;50681;53.334;-6.536;2022-12-18T12:30:36;99401.28;;;9.34;100.00
64354;BME280;50681;53.334;-6.536;2022-12-18T12:33:12;99408.34;;;9.52;100.00
64354;BME280;50681;53.334;-6.536;2022-12-18T12:40:51;99366.91;;;9.71;100.00
64354;BME280;50681;53.334;-6.536;2022-12-18T12:43:41;99370.47;;;9.98;100.00
64354;BME280;50681;53.334;-6.536;2022-12-18T12:46:13;99361.41;;;10.03;100.00
64354;BME280;50681;53.334;-6.536;2022-12-18T12:48:50;99327.31;;;9.98;100.00
64354;BME280;50681;53.334;-6.536;2022-12-18T12:51:23;99319.72;;;10.00;100.00
64354;BME280;50681;53.334;-6.536;2022-12-18T12:53:50;99302.56;;;9.96;100.00
64354;BME280;50681;53.334;-6.536;2022-12-18T12:56:18;99306.69;;;10.02;100.00
64354;BME280;50681;53.334;-6.536;2022-12-18T13:04:26;99297.66;;;10.33;100.00
64354;BME280;50681;53.334;-6.536;2022-12-18T13:07:06;99287.22;;;10.40;100.00
64354;BME280;50681;53.334;-6.536;2022-12-18T13:10:39;99291.94;;;10.35;100.00
64354;BME280;50681;53.334;-6.536;2022-12-18T13:13:07;99293.56;;;10.44;100.00
64354;BME280;50681;53.334;-6.536;2022-12-18T13:15:41;99298.16;;;10.53;100.00
64354;BME280;50681;53.334;-6.536;2022-12-18T13:20:40;99260.72;;;10.42;100.00
64354;BME280;50681;53.334;-6.536;2022-12-18T13:28:56;99249.22;;;10.63;100.00
64354;BME280;50681;53.334;-6.536;2022-12-18T13:34:26;99248.22;;;10.77;100.00
64354;BME280;50681;53.334;-6.536;2022-12-18T13:36:53;99238.91;;;10.56;100.00
64354;BME280;50681;53.334;-6.536;2022-12-18T13:42:36;99244.88;;;10.88;100.00
64354;BME280;50681;53.334;-6.536;2022-12-18T13:44:58;99233.25;;;10.88;100.00
64354;BME280;50681;53.334;-6.536;2022-12-18T13:47:35;99197.88;;;10.81;100.00
64354;BME280;50681;53.334;-6.536;2022-12-18T13:50:23;99219.09;;;10.91;100.00
64354;BME280;50681;53.334;-6.536;2022-12-18T13:52:50;99191.28;;;10.61;100.00
64354;BME280;50681;53.334;-6.536;2022-12-18T13:55:18;99205.97;;;10.81;100.00
64354;BME280;50681;53.334;-6.536;2022-12-18T13:57:44;99192.94;;;10.83;100.00
64354;BME280;50681;53.334;-6.536;2022-12-18T14:02:44;99187.41;;;10.79;100.00
64354;BME280;50681;53.334;-6.536;2022-12-18T14:07:53;99174.50;;;10.85;100.00
64354;BME280;50681;53.334;-6.536;2022-12-18T14:10:23;99177.34;;;10.88;100.00
64354;BME280;50681;53.334;-6.536;2022-12-18T14:12:50;99169.25;;;10.88;100.00
64354;BME280;50681;53.334;-6.536;2022-12-18T14:15:57;99173.94;;;11.00;100.00
64354;BME280;50681;53.334;-6.536;2022-12-18T14:18:26;99171.72;;;11.02;100.00
64354;BME280;50681;53.334;-6.536;2022-12-18T14:20:58;99170.59;;;11.03;100.00
64354;BME280;50681;53.334;-6.536;2022-12-18T14:23:41;99165.53;;;11.02;100.00
64354;BME280;50681;53.334;-6.536;2022-12-18T14:26:24;99173.28;;;11.03;100.00
64354;BME280;50681;53.334;-6.536;2022-12-18T14:28:52;99166.66;;;11.01;100.00
64354;BME280;50681;53.334;-6.536;2022-12-18T14:31:20;99172.66;;;11.07;100.00
64354;BME280;50681;53.334;-6.536;2022-12-18T14:33:46;99142.53;;;10.96;100.00
64354;BME280;50681;53.334;-6.536;2022-12-18T14:36:16;99123.00;;;10.90;100.00
64354;BME280;50681;53.334;-6.536;2022-12-18T14:38:42;99144.94;;;10.88;100.00
64354;BME280;50681;53.334;-6.536;2022-12-18T14:41:15;99134.66;;;10.82;100.00
64354;BME280;50681;53.334;-6.536;2022-12-18T14:43:44;99130.38;;;10.81;100.00
64354;BME280;50681;53.334;-6.536;2022-12-18T14:48:54;99122.31;;;10.72;100.00
64354;BME280;50681;53.334;-6.536;2022-12-18T14:51:22;99121.50;;;10.71;100.00
64354;BME280;50681;53.334;-6.536;2022-12-18T14:54:05;99108.03;;;10.71;100.00
64354;BME280;50681;53.334;-6.536;2022-12-18T14:56:47;99118.16;;;10.74;100.00